createdAt,value
2023-01-08T00:02:09.822Z,991.35
2023-01-08T00:07:09.847Z,991.33
2023-01-08T00:12:09.664Z,991.33
2023-01-08T00:17:09.630Z,991.33
2023-01-08T00:24:34.609Z,991.18
2023-01-08T00:58:39.412Z,990.97
2023-01-08T01:16:44.746Z,990.95
2023-01-08T01:21:44.391Z,990.94
2023-01-08T01:26:44.103Z,990.90
2023-01-08T01:31:44.166Z,990.92
2023-01-08T01:36:44.165Z,990.91
2023-01-08T01:41:43.818Z,991.02
2023-01-08T01:46:43.928Z,991.04
2023-01-08T01:51:43.669Z,990.92
2023-01-08T01:56:43.846Z,990.90
2023-01-08T02:01:43.893Z,990.60
2023-01-08T02:06:47.225Z,990.60
2023-01-08T02:11:43.952Z,990.54
2023-01-08T02:16:43.556Z,990.63
2023-01-08T02:21:43.288Z,990.51
2023-01-08T02:26:43.244Z,990.44
2023-01-08T02:31:43.408Z,990.42
2023-01-08T02:36:43.175Z,990.17
2023-01-08T02:41:43.300Z,990.18
2023-01-08T02:46:43.119Z,990.29
2023-01-08T02:51:42.993Z,990.40
2023-01-08T02:56:42.940Z,990.38
2023-01-08T03:01:42.871Z,990.21
2023-01-08T03:06:45.858Z,990.15
2023-01-08T03:11:42.636Z,990.16
2023-01-08T03:16:42.756Z,990.17
2023-01-08T03:38:49.323Z,990.11
2023-01-08T04:16:45.388Z,989.90
2023-01-08T04:21:44.592Z,989.82
2023-01-08T04:26:44.465Z,989.80
2023-01-08T04:33:35.664Z,989.80
2023-01-08T04:38:43.205Z,989.67
2023-01-08T04:43:35.511Z,989.69
2023-01-08T04:48:35.348Z,989.60
2023-01-08T04:53:35.270Z,989.58
2023-01-08T04:58:35.306Z,989.56
2023-01-08T05:03:35.271Z,989.41
2023-01-08T05:08:35.264Z,989.38
2023-01-08T05:13:35.043Z,989.34
2023-01-08T05:18:35.418Z,989.35
2023-01-08T05:23:37.910Z,989.38
2023-01-08T05:28:34.891Z,989.35
2023-01-08T05:33:34.843Z,989.44
2023-01-08T05:57:30.830Z,989.34
2023-01-08T06:02:31.627Z,989.30
2023-01-08T06:07:30.008Z,989.39
2023-01-08T06:12:29.830Z,989.49
2023-01-08T06:17:29.763Z,989.44
2023-01-08T06:22:29.646Z,989.30
2023-01-08T06:27:30.227Z,989.41
2023-01-08T06:32:29.611Z,989.23
2023-01-08T06:40:12.714Z,989.02
2023-01-08T06:45:12.609Z,989.34
2023-01-08T06:50:12.718Z,989.30
2023-01-08T06:55:12.570Z,989.43
2023-01-08T07:00:13.086Z,989.24
2023-01-08T07:05:12.244Z,989.26
2023-01-08T07:10:12.420Z,989.20
2023-01-08T07:15:12.109Z,988.90
2023-01-08T07:20:12.208Z,988.99
2023-01-08T07:25:11.939Z,988.84
2023-01-08T07:30:28.927Z,988.99
2023-01-08T07:35:12.877Z,989.06
2023-01-08T07:40:11.873Z,989.08
2023-01-08T07:45:12.093Z,988.99
2023-01-08T07:50:11.694Z,989.02
2023-01-08T07:55:11.701Z,988.90
2023-01-08T08:00:11.841Z,988.91
2023-01-08T08:07:12.629Z,988.99
2023-01-08T08:12:12.428Z,988.88
2023-01-08T08:20:43.654Z,988.77
2023-01-08T08:25:42.941Z,988.63
2023-01-08T08:30:46.388Z,988.63
2023-01-08T08:39:31.934Z,988.74
2023-01-08T08:47:00.695Z,988.83
2023-01-08T08:52:00.299Z,988.71
2023-01-08T08:57:12.900Z,988.57
2023-01-08T09:15:28.613Z,988.71
2023-01-08T09:22:19.083Z,988.77
2023-01-08T09:29:26.337Z,988.71
2023-01-08T09:34:29.048Z,988.59
2023-01-08T09:39:27.183Z,988.71
2023-01-08T09:44:26.113Z,988.75
2023-01-08T09:49:25.902Z,988.78
2023-01-08T09:54:26.202Z,988.75
2023-01-08T09:59:25.900Z,988.76
2023-01-08T10:04:25.696Z,988.73
2023-01-08T10:09:25.676Z,988.66
2023-01-08T10:14:25.598Z,988.66
2023-01-08T10:19:28.618Z,988.62
2023-01-08T10:24:25.599Z,988.46
2023-01-08T10:29:25.324Z,988.34
2023-01-08T10:34:25.261Z,988.31
2023-01-08T10:59:55.485Z,987.94
2023-01-08T11:04:55.287Z,987.91
2023-01-08T11:09:55.126Z,987.93
2023-01-08T11:39:11.613Z,987.41
2023-01-08T11:44:11.699Z,987.41
2023-01-08T11:49:11.475Z,987.41
2023-01-08T11:54:13.632Z,987.41
2023-01-08T11:59:11.337Z,987.27
2023-01-08T12:05:29.036Z,987.24
2023-01-08T12:10:28.878Z,987.23
2023-01-08T12:15:28.908Z,987.24
2023-01-08T12:20:28.725Z,987.24
2023-01-08T12:25:28.503Z,987.12
2023-01-08T12:30:28.507Z,987.07
2023-01-08T12:35:28.500Z,986.95
2023-01-08T12:40:28.311Z,986.90
2023-01-08T12:45:28.601Z,986.79
2023-01-08T12:52:00.200Z,986.66
2023-01-08T12:57:07.760Z,986.64
2023-01-08T13:02:00.324Z,986.64
2023-01-08T13:07:00.200Z,986.56
2023-01-08T13:12:00.077Z,986.59
2023-01-08T13:17:07.508Z,986.49
2023-01-08T13:26:45.417Z,986.41
2023-01-08T13:33:02.116Z,986.34
2023-01-08T13:38:01.940Z,986.27
2023-01-08T13:43:01.876Z,986.24
2023-01-08T13:48:01.890Z,986.18
2023-01-08T13:53:01.874Z,986.16
2023-01-08T13:58:01.784Z,986.24
2023-01-08T14:03:01.658Z,986.23
2023-01-08T14:08:01.461Z,986.15
2023-01-08T14:14:19.800Z,986.16
2023-01-08T14:19:19.815Z,986.26
2023-01-08T14:24:19.824Z,986.33
2023-01-08T14:30:38.965Z,986.21
2023-01-08T14:35:38.587Z,986.25
2023-01-08T14:40:38.752Z,986.31
2023-01-08T14:47:39.965Z,986.28
2023-01-08T14:52:39.695Z,986.32
2023-01-08T14:57:39.674Z,986.32
2023-01-08T15:02:39.742Z,986.17
2023-01-08T15:07:39.642Z,986.19
2023-01-08T15:12:39.394Z,986.12
2023-01-08T15:17:39.571Z,985.97
2023-01-08T15:22:50.113Z,986.10
2023-01-08T15:27:46.619Z,986.00
2023-01-08T15:33:57.340Z,986.02
2023-01-08T15:38:57.111Z,985.86
2023-01-08T15:44:04.805Z,985.82
2023-01-08T15:49:03.924Z,985.79
2023-01-08T15:53:56.936Z,985.70
2023-01-08T15:58:56.857Z,985.89
2023-01-08T16:03:56.758Z,985.99
2023-01-08T16:15:05.881Z,986.00
2023-01-08T16:20:05.433Z,985.92
2023-01-08T16:25:05.594Z,985.91
2023-01-08T16:31:30.531Z,985.93
2023-01-08T16:36:30.527Z,985.81
2023-01-08T16:41:30.167Z,985.70
2023-01-08T16:46:30.221Z,985.76
2023-01-08T16:51:30.164Z,985.85
2023-01-08T17:03:51.959Z,985.61
2023-01-08T17:09:06.199Z,985.52
2023-01-08T17:17:28.308Z,985.33
2023-01-08T18:11:49.437Z,984.90
2023-01-08T18:16:56.358Z,984.73
2023-01-08T18:23:38.749Z,984.69
2023-01-08T18:48:37.090Z,984.72
2023-01-08T18:53:44.482Z,984.59
2023-01-08T18:58:43.833Z,984.52
2023-01-08T19:04:57.643Z,984.42
2023-01-08T19:09:57.901Z,984.36
2023-01-08T19:14:58.083Z,984.29
2023-01-08T19:19:57.419Z,984.33
2023-01-08T19:24:57.537Z,984.17
2023-01-08T19:29:57.267Z,984.05
2023-01-08T19:34:57.516Z,983.98
2023-01-08T19:39:57.125Z,983.93
2023-01-08T19:44:57.118Z,983.93
2023-01-08T19:49:57.031Z,983.91
2023-01-08T19:55:00.130Z,984.01
2023-01-08T19:59:57.040Z,983.96
2023-01-08T20:04:57.060Z,983.92
2023-01-08T20:09:56.751Z,983.77
2023-01-08T20:15:05.266Z,983.72
2023-01-08T20:19:56.835Z,983.60
2023-01-08T20:24:58.464Z,983.63
2023-01-08T20:29:56.508Z,983.60
2023-01-08T20:34:56.475Z,983.74
2023-01-08T20:39:56.573Z,983.63
2023-01-08T20:44:56.723Z,983.51
2023-01-08T20:49:56.329Z,983.29
2023-01-08T20:54:59.206Z,983.17
2023-01-08T20:59:56.272Z,983.18
2023-01-08T21:04:56.223Z,983.11
2023-01-08T21:09:56.065Z,983.15
2023-01-08T21:14:55.965Z,983.12
2023-01-08T21:19:55.902Z,983.14
2023-01-08T21:24:56.677Z,983.11
2023-01-08T21:29:55.741Z,983.02
2023-01-08T21:34:55.741Z,982.85
2023-01-08T21:39:55.678Z,982.91
2023-01-08T21:44:55.593Z,982.84
2023-01-08T21:49:55.474Z,982.81
2023-01-08T21:54:58.503Z,982.58
2023-01-08T21:59:55.383Z,982.39
2023-01-08T22:04:55.394Z,982.43
2023-01-08T22:09:55.178Z,982.47
2023-01-08T22:14:55.300Z,982.51
2023-01-08T22:19:55.119Z,982.54
2023-01-08T22:24:55.146Z,982.45
2023-01-08T22:29:54.948Z,982.35
2023-01-08T22:34:55.195Z,982.38
2023-01-08T22:39:54.855Z,982.34
2023-01-08T22:44:54.801Z,982.26
2023-01-08T22:49:54.762Z,982.21
2023-01-08T22:54:57.763Z,982.20
2023-01-08T23:00:02.219Z,982.15
2023-01-08T23:04:54.719Z,982.04
2023-01-08T23:09:54.589Z,982.04
2023-01-08T23:14:54.548Z,982.02
2023-01-08T23:20:01.971Z,981.88
2023-01-08T23:25:01.710Z,981.83
2023-01-08T23:30:02.627Z,981.80
2023-01-08T23:34:54.208Z,981.71
2023-01-08T23:39:54.184Z,981.57
2023-01-08T23:44:54.183Z,981.50
2023-01-08T23:49:54.176Z,981.50
2023-01-08T23:54:56.909Z,981.45
2023-01-08T23:59:53.824Z,981.38
